sensor_id;sensor_type;location;lat;lon;timestamp;pressure;altitude;pressure_sealevel;temperature;humidity
79540;BME280;74475;52.122;5.406;2023-12-14T04:57:44;101539.84;;;18.57;59.28
79540;BME280;74475;52.122;5.406;2023-12-14T05:00:13;101550.56;;;18.60;59.34
79540;BME280;74475;52.122;5.406;2023-12-14T05:02:39;101558.59;;;18.61;59.30
79540;BME280;74475;52.122;5.406;2023-12-14T05:05:06;101561.09;;;18.64;59.55
79540;BME280;74475;52.122;5.406;2023-12-14T05:07:33;101561.00;;;18.66;59.26
79540;BME280;74475;52.122;5.406;2023-12-14T05:09:59;101564.25;;;18.71;59.17
79540;BME280;74475;52.122;5.406;2023-12-14T05:12:26;101569.50;;;18.74;59.60
79540;BME280;74475;52.122;5.406;2023-12-14T05:14:53;101576.56;;;18.76;59.24
79540;BME280;74475;52.122;5.406;2023-12-14T05:17:19;101584.59;;;18.78;59.45
79540;BME280;74475;52.122;5.406;2023-12-14T05:19:46;101598.13;;;18.79;59.86
79540;BME280;74475;52.122;5.406;2023-12-14T05:22:13;101603.50;;;18.81;59.67
79540;BME280;74475;52.122;5.406;2023-12-14T05:24:39;101601.59;;;18.81;59.47
79540;BME280;74475;52.122;5.406;2023-12-14T05:27:06;101616.97;;;18.82;59.49
79540;BME280;74475;52.122;5.406;2023-12-14T05:29:32;101616.97;;;18.82;59.39
79540;BME280;74475;52.122;5.406;2023-12-14T05:31:59;101618.97;;;18.80;59.17
79540;BME280;74475;52.122;5.406;2023-12-14T05:34:26;101617.94;;;18.81;59.16
79540;BME280;74475;52.122;5.406;2023-12-14T05:36:53;101629.84;;;18.80;58.88
79540;BME280;74475;52.122;5.406;2023-12-14T05:39:19;101634.44;;;18.80;59.03
79540;BME280;74475;52.122;5.406;2023-12-14T05:41:46;101629.84;;;18.80;59.00
79540;BME280;74475;52.122;5.406;2023-12-14T05:44:12;101635.31;;;18.80;58.84
79540;BME280;74475;52.122;5.406;2023-12-14T05:46:39;101638.03;;;18.80;58.81
79540;BME280;74475;52.122;5.406;2023-12-14T05:49:06;101634.44;;;18.80;58.94
79540;BME280;74475;52.122;5.406;2023-12-14T05:51:33;101647.06;;;18.81;58.85
79540;BME280;74475;52.122;5.406;2023-12-14T05:53:59;101648.78;;;18.82;59.26
79540;BME280;74475;52.122;5.406;2023-12-14T05:56:26;101650.53;;;18.83;59.13
79540;BME280;74475;52.122;5.406;2023-12-14T05:58:53;101654.16;;;18.83;59.10
79540;BME280;74475;52.122;5.406;2023-12-14T06:01:20;101657.75;;;18.84;59.33
79540;BME280;74475;52.122;5.406;2023-12-14T06:03:47;101663.06;;;18.85;58.95
79540;BME280;74475;52.122;5.406;2023-12-14T06:06:13;101670.38;;;18.85;58.98
79540;BME280;74475;52.122;5.406;2023-12-14T06:08:41;101679.53;;;18.84;59.06
79540;BME280;74475;52.122;5.406;2023-12-14T06:11:08;101686.94;;;18.82;59.04
79540;BME280;74475;52.122;5.406;2023-12-14T06:13:35;101685.97;;;18.83;58.97
79540;BME280;74475;52.122;5.406;2023-12-14T06:16:01;101685.09;;;18.82;58.73
79540;BME280;74475;52.122;5.406;2023-12-14T06:18:28;101682.38;;;18.82;58.72
79540;BME280;74475;52.122;5.406;2023-12-14T06:20:56;101693.25;;;18.82;58.82
79540;BME280;74475;52.122;5.406;2023-12-14T06:23:23;101694.22;;;18.81;58.67
79540;BME280;74475;52.122;5.406;2023-12-14T06:25:49;101698.84;;;18.81;58.58
79540;BME280;74475;52.122;5.406;2023-12-14T06:28:16;101703.41;;;18.80;58.69
79540;BME280;74475;52.122;5.406;2023-12-14T06:30:42;101718.00;;;18.79;58.76
79540;BME280;74475;52.122;5.406;2023-12-14T06:33:09;101721.69;;;18.78;58.78
79540;BME280;74475;52.122;5.406;2023-12-14T06:35:35;101724.41;;;18.78;58.54
79540;BME280;74475;52.122;5.406;2023-12-14T06:38:02;101730.75;;;18.79;58.71
79540;BME280;74475;52.122;5.406;2023-12-14T06:40:28;101740.78;;;18.78;58.63
79540;BME280;74475;52.122;5.406;2023-12-14T06:42:55;101748.94;;;18.78;58.78
79540;BME280;74475;52.122;5.406;2023-12-14T06:45:21;101742.63;;;18.78;58.90
79540;BME280;74475;52.122;5.406;2023-12-14T06:47:47;101746.22;;;18.78;58.37
79540;BME280;74475;52.122;5.406;2023-12-14T06:50:15;101753.50;;;18.78;58.57
79540;BME280;74475;52.122;5.406;2023-12-14T06:52:41;101754.50;;;18.77;59.04
79540;BME280;74475;52.122;5.406;2023-12-14T06:55:08;101766.28;;;18.77;58.73
79540;BME280;74475;52.122;5.406;2023-12-14T06:57:35;101762.69;;;18.77;59.07
79540;BME280;74475;52.122;5.406;2023-12-14T07:00:02;101759.09;;;18.76;58.57
79540;BME280;74475;52.122;5.406;2023-12-14T07:02:28;101775.44;;;18.76;59.02
79540;BME280;74475;52.122;5.406;2023-12-14T07:04:55;101779.13;;;18.75;58.68
79540;BME280;74475;52.122;5.406;2023-12-14T07:07:21;101784.78;;;18.72;58.51
79540;BME280;74475;52.122;5.406;2023-12-14T07:09:48;101796.78;;;18.70;58.33
79540;BME280;74475;52.122;5.406;2023-12-14T07:12:14;101797.84;;;18.67;58.18
79540;BME280;74475;52.122;5.406;2023-12-14T07:14:41;101807.97;;;18.65;58.20
79540;BME280;74475;52.122;5.406;2023-12-14T07:17:07;101809.81;;;18.65;58.13
79540;BME280;74475;52.122;5.406;2023-12-14T07:19:34;101807.22;;;18.63;58.18
79540;BME280;74475;52.122;5.406;2023-12-14T07:22:01;101818.22;;;18.62;58.11
79540;BME280;74475;52.122;5.406;2023-12-14T07:24:28;101813.72;;;18.61;58.39
79540;BME280;74475;52.122;5.406;2023-12-14T07:27:00;101816.56;;;18.59;58.13
79540;BME280;74475;52.122;5.406;2023-12-14T07:29:26;101818.50;;;18.57;58.13
79540;BME280;74475;52.122;5.406;2023-12-14T07:31:53;101823.19;;;18.55;58.06
79540;BME280;74475;52.122;5.406;2023-12-14T07:34:19;101818.72;;;18.54;58.07
79540;BME280;74475;52.122;5.406;2023-12-14T07:36:47;101827.84;;;18.53;58.18
79540;BME280;74475;52.122;5.406;2023-12-14T07:39:13;101833.44;;;18.52;58.20
79540;BME280;74475;52.122;5.406;2023-12-14T07:41:40;101840.78;;;18.50;58.24
79540;BME280;74475;52.122;5.406;2023-12-14T07:44:06;101831.75;;;18.49;58.03
79540;BME280;74475;52.122;5.406;2023-12-14T07:46:33;101845.47;;;18.48;58.17
79540;BME280;74475;52.122;5.406;2023-12-14T07:48:59;101850.03;;;18.47;58.46
79540;BME280;74475;52.122;5.406;2023-12-14T07:51:29;101853.72;;;18.46;58.04
79540;BME280;74475;52.122;5.406;2023-12-14T07:53:55;101857.44;;;18.45;58.28
79540;BME280;74475;52.122;5.406;2023-12-14T07:56:22;101869.31;;;18.44;58.11
79540;BME280;74475;52.122;5.406;2023-12-14T07:58:51;101863.09;;;18.42;58.18
79540;BME280;74475;52.122;5.406;2023-12-14T08:01:18;101865.81;;;18.42;58.34
79540;BME280;74475;52.122;5.406;2023-12-14T08:03:45;101867.66;;;18.42;58.20
79540;BME280;74475;52.122;5.406;2023-12-14T08:06:11;101874.94;;;18.41;58.17
79540;BME280;74475;52.122;5.406;2023-12-14T08:08:41;101879.59;;;18.39;57.89
79540;BME280;74475;52.122;5.406;2023-12-14T08:11:08;101873.31;;;18.38;57.98
79540;BME280;74475;52.122;5.406;2023-12-14T08:13:35;101877.00;;;18.37;58.05
79540;BME280;74475;52.122;5.406;2023-12-14T08:16:04;101877.09;;;18.36;58.18
79540;BME280;74475;52.122;5.406;2023-12-14T08:18:30;101883.53;;;18.35;58.16
79540;BME280;74475;52.122;5.406;2023-12-14T08:20:57;101883.63;;;18.33;57.86
79540;BME280;74475;52.122;5.406;2023-12-14T08:23:23;101890.81;;;18.34;58.32
79540;BME280;74475;52.122;5.406;2023-12-14T08:25:53;101901.81;;;18.33;58.29
79540;BME280;74475;52.122;5.406;2023-12-14T08:28:23;101912.81;;;18.31;57.96
79540;BME280;74475;52.122;5.406;2023-12-14T08:30:50;101917.38;;;18.31;58.25
79540;BME280;74475;52.122;5.406;2023-12-14T08:33:17;101908.41;;;18.29;58.15
79540;BME280;74475;52.122;5.406;2023-12-14T08:35:43;101912.97;;;18.28;57.99
79540;BME280;74475;52.122;5.406;2023-12-14T08:38:10;101910.25;;;18.28;58.14
79540;BME280;74475;52.122;5.406;2023-12-14T08:40:38;101913.97;;;18.27;58.17
79540;BME280;74475;52.122;5.406;2023-12-14T08:43:05;101925.81;;;18.26;58.18
79540;BME280;74475;52.122;5.406;2023-12-14T08:45:31;101926.78;;;18.25;57.95
79540;BME280;74475;52.122;5.406;2023-12-14T08:47:58;101928.63;;;18.25;58.06
79540;BME280;74475;52.122;5.406;2023-12-14T08:50:25;101937.81;;;18.24;58.25
79540;BME280;74475;52.122;5.406;2023-12-14T08:52:52;101945.97;;;18.24;58.27
79540;BME280;74475;52.122;5.406;2023-12-14T08:55:21;101951.50;;;18.22;58.23
79540;BME280;74475;52.122;5.406;2023-12-14T08:57:48;101956.06;;;18.22;58.14
79540;BME280;74475;52.122;5.406;2023-12-14T09:00:15;101950.72;;;18.20;58.08
79540;BME280;74475;52.122;5.406;2023-12-14T09:02:42;101958.91;;;18.20;58.28
79540;BME280;74475;52.122;5.406;2023-12-14T09:05:10;101962.59;;;18.19;58.04
79540;BME280;74475;52.122;5.406;2023-12-14T09:07:41;101965.31;;;18.19;58.09
79540;BME280;74475;52.122;5.406;2023-12-14T09:10:08;101959.09;;;18.17;58.19
79540;BME280;74475;52.122;5.406;2023-12-14T09:12:34;101964.53;;;18.17;58.17
79540;BME280;74475;52.122;5.406;2023-12-14T09:15:01;101971.81;;;18.17;58.03
79540;BME280;74475;52.122;5.406;2023-12-14T09:17:28;101977.28;;;18.17;58.81
79540;BME280;74475;52.122;5.406;2023-12-14T09:20:03;101987.28;;;18.16;58.22
79540;BME280;74475;52.122;5.406;2023-12-14T09:22:31;101992.81;;;18.15;58.14
79540;BME280;74475;52.122;5.406;2023-12-14T09:24:58;101996.41;;;18.15;58.03
79540;BME280;74475;52.122;5.406;2023-12-14T09:27:24;102000.09;;;18.14;57.84
79540;BME280;74475;52.122;5.406;2023-12-14T09:29:51;101999.31;;;18.12;58.15
79540;BME280;74475;52.122;5.406;2023-12-14T09:32:17;101997.47;;;18.13;58.28
79540;BME280;74475;52.122;5.406;2023-12-14T09:34:44;102013.81;;;18.13;58.03
79540;BME280;74475;52.122;5.406;2023-12-14T09:37:10;102005.72;;;18.11;58.17
79540;BME280;74475;52.122;5.406;2023-12-14T09:39:37;102012.06;;;18.12;57.86
79540;BME280;74475;52.122;5.406;2023-12-14T09:42:05;102017.50;;;18.12;58.21
79540;BME280;74475;52.122;5.406;2023-12-14T09:44:32;102019.44;;;18.10;57.94
79540;BME280;74475;52.122;5.406;2023-12-14T09:47:00;102020.34;;;18.10;57.95
79540;BME280;74475;52.122;5.406;2023-12-14T09:49:26;102029.47;;;18.09;58.13
79540;BME280;74475;52.122;5.406;2023-12-14T09:51:59;102033.13;;;18.08;58.09
79540;BME280;74475;52.122;5.406;2023-12-14T09:54:27;102044.03;;;18.08;57.94
79540;BME280;74475;52.122;5.406;2023-12-14T09:56:54;102051.31;;;18.08;58.00
79540;BME280;74475;52.122;5.406;2023-12-14T09:59:21;102059.47;;;18.08;57.85
79540;BME280;74475;52.122;5.406;2023-12-14T10:01:48;102063.16;;;18.07;57.69
79540;BME280;74475;52.122;5.406;2023-12-14T10:04:17;102068.59;;;18.07;57.93
79540;BME280;74475;52.122;5.406;2023-12-14T10:06:45;102072.31;;;18.06;57.92
79540;BME280;74475;52.122;5.406;2023-12-14T10:09:12;102075.03;;;18.06;58.12
79540;BME280;74475;52.122;5.406;2023-12-14T10:11:43;102076.88;;;18.05;57.75
79540;BME280;74475;52.122;5.406;2023-12-14T10:16:47;102082.31;;;18.05;57.93
79540;BME280;74475;52.122;5.406;2023-12-14T10:19:16;102063.34;;;18.04;57.92
79540;BME280;74475;52.122;5.406;2023-12-14T10:21:43;102068.72;;;18.05;57.69
79540;BME280;74475;52.122;5.406;2023-12-14T10:24:09;102079.59;;;18.05;57.84
79540;BME280;74475;52.122;5.406;2023-12-14T10:26:36;102076.00;;;18.05;57.59
79540;BME280;74475;52.122;5.406;2023-12-14T10:29:02;102077.75;;;18.06;57.69
79540;BME280;74475;52.122;5.406;2023-12-14T10:31:31;102079.47;;;18.07;57.80
79540;BME280;74475;52.122;5.406;2023-12-14T10:33:57;102082.22;;;18.07;58.00
79540;BME280;74475;52.122;5.406;2023-12-14T10:36:25;102083.97;;;18.08;57.87
79540;BME280;74475;52.122;5.406;2023-12-14T10:38:53;102083.00;;;18.09;57.71
79540;BME280;74475;52.122;5.406;2023-12-14T10:41:21;102077.56;;;18.09;57.85
79540;BME280;74475;52.122;5.406;2023-12-14T10:43:50;102071.16;;;18.10;57.72
79540;BME280;74475;52.122;5.406;2023-12-14T10:46:37;102079.31;;;18.10;57.92
79540;BME280;74475;52.122;5.406;2023-12-14T10:49:03;102082.94;;;18.10;57.78
79540;BME280;74475;52.122;5.406;2023-12-14T10:51:30;102082.94;;;18.10;57.60
79540;BME280;74475;52.122;5.406;2023-12-14T10:53:57;102083.78;;;18.11;57.49
79540;BME280;74475;52.122;5.406;2023-12-14T10:56:24;102081.06;;;18.11;57.47
79540;BME280;74475;52.122;5.406;2023-12-14T10:58:51;102092.81;;;18.11;57.51
79540;BME280;74475;52.122;5.406;2023-12-14T11:01:20;102090.97;;;18.12;57.70
79540;BME280;74475;52.122;5.406;2023-12-14T11:03:48;102096.41;;;18.12;57.51
79540;BME280;74475;52.122;5.406;2023-12-14T11:09:04;102098.19;;;18.13;57.58
79540;BME280;74475;52.122;5.406;2023-12-14T11:11:43;102107.22;;;18.13;57.83
79540;BME280;74475;52.122;5.406;2023-12-14T11:14:14;102107.22;;;18.13;57.57
79540;BME280;74475;52.122;5.406;2023-12-14T11:16:47;102114.41;;;18.14;57.32
79540;BME280;74475;52.122;5.406;2023-12-14T11:24:36;102124.44;;;18.14;57.28
79540;BME280;74475;52.122;5.406;2023-12-14T11:27:09;102127.94;;;18.16;57.41
79540;BME280;74475;52.122;5.406;2023-12-14T11:29:37;102130.66;;;18.16;57.45
79540;BME280;74475;52.122;5.406;2023-12-14T11:32:05;102127.94;;;18.16;57.56
79540;BME280;74475;52.122;5.406;2023-12-14T11:34:33;102121.53;;;18.17;57.49
79540;BME280;74475;52.122;5.406;2023-12-14T11:36:59;102132.41;;;18.17;57.42
79540;BME280;74475;52.122;5.406;2023-12-14T11:39:30;102130.56;;;18.17;57.40
79540;BME280;74475;52.122;5.406;2023-12-14T11:42:01;102135.91;;;18.19;57.33
79540;BME280;74475;52.122;5.406;2023-12-14T11:44:28;102132.31;;;18.18;57.19
79540;BME280;74475;52.122;5.406;2023-12-14T11:46:58;102124.06;;;18.20;57.12
79540;BME280;74475;52.122;5.406;2023-12-14T11:49:25;102130.38;;;18.20;57.25
79540;BME280;74475;52.122;5.406;2023-12-14T11:51:55;102125.81;;;18.21;57.19
79540;BME280;74475;52.122;5.406;2023-12-14T11:54:22;102120.38;;;18.21;56.93
79540;BME280;74475;52.122;5.406;2023-12-14T11:56:49;102136.69;;;18.21;56.99
79540;BME280;74475;52.122;5.406;2023-12-14T11:59:17;102125.81;;;18.21;56.99
79540;BME280;74475;52.122;5.406;2023-12-14T12:01:57;102142.16;;;18.21;57.01
79540;BME280;74475;52.122;5.406;2023-12-14T12:04:24;102129.38;;;18.21;57.03
79540;BME280;74475;52.122;5.406;2023-12-14T12:07:04;102133.00;;;18.22;56.96
79540;BME280;74475;52.122;5.406;2023-12-14T12:09:41;102144.88;;;18.21;57.16
79540;BME280;74475;52.122;5.406;2023-12-14T12:12:09;102139.44;;;18.21;57.18
79540;BME280;74475;52.122;5.406;2023-12-14T12:14:36;102141.28;;;18.20;56.97
79540;BME280;74475;52.122;5.406;2023-12-14T12:17:04;102147.59;;;18.21;56.92
79540;BME280;74475;52.122;5.406;2023-12-14T12:19:33;102155.75;;;18.21;56.93
79540;BME280;74475;52.122;5.406;2023-12-14T12:22:01;102154.88;;;18.20;56.91
79540;BME280;74475;52.122;5.406;2023-12-14T12:24:27;102155.84;;;18.19;56.86
79540;BME280;74475;52.122;5.406;2023-12-14T12:26:56;102157.69;;;18.19;56.75
79540;BME280;74475;52.122;5.406;2023-12-14T12:29:22;102153.19;;;18.18;56.97
79540;BME280;74475;52.122;5.406;2023-12-14T12:31:49;102163.13;;;18.19;56.96
79540;BME280;74475;52.122;5.406;2023-12-14T12:34:16;102165.06;;;18.17;57.17
79540;BME280;74475;52.122;5.406;2023-12-14T12:36:42;102168.69;;;18.17;56.81
79540;BME280;74475;52.122;5.406;2023-12-14T12:39:09;102166.91;;;18.16;56.77
79540;BME280;74475;52.122;5.406;2023-12-14T12:41:35;102162.34;;;18.17;56.76
79540;BME280;74475;52.122;5.406;2023-12-14T12:44:05;102171.47;;;18.16;57.10
79540;BME280;74475;52.122;5.406;2023-12-14T12:46:33;102168.75;;;18.16;56.70
79540;BME280;74475;52.122;5.406;2023-12-14T12:49:01;102176.91;;;18.16;56.83
79540;BME280;74475;52.122;5.406;2023-12-14T12:51:29;102177.88;;;18.15;56.84
79540;BME280;74475;52.122;5.406;2023-12-14T12:53:57;102174.19;;;18.16;56.88
79540;BME280;74475;52.122;5.406;2023-12-14T12:56:37;102171.56;;;18.14;56.88
79540;BME280;74475;52.122;5.406;2023-12-14T12:59:04;102176.16;;;18.14;56.69
79540;BME280;74475;52.122;5.406;2023-12-14T13:01:34;102168.00;;;18.14;56.91
79540;BME280;74475;52.122;5.406;2023-12-14T13:04:01;102168.94;;;18.13;56.52
79540;BME280;74475;52.122;5.406;2023-12-14T13:06:27;102172.63;;;18.12;56.69
79540;BME280;74475;52.122;5.406;2023-12-14T13:08:54;102175.34;;;18.12;56.63
79540;BME280;74475;52.122;5.406;2023-12-14T13:11:21;102168.13;;;18.11;56.57
79540;BME280;74475;52.122;5.406;2023-12-14T13:13:47;102176.31;;;18.11;56.83
79540;BME280;74475;52.122;5.406;2023-12-14T13:16:14;102177.31;;;18.10;56.60
79540;BME280;74475;52.122;5.406;2023-12-14T13:18:43;102173.69;;;18.09;56.85
79540;BME280;74475;52.122;5.406;2023-12-14T13:21:10;102185.53;;;18.08;56.55
79540;BME280;74475;52.122;5.406;2023-12-14T13:23:37;102189.22;;;18.07;56.63
79540;BME280;74475;52.122;5.406;2023-12-14T13:26:04;102190.09;;;18.08;56.66
79540;BME280;74475;52.122;5.406;2023-12-14T13:28:31;102188.34;;;18.07;56.77
79540;BME280;74475;52.122;5.406;2023-12-14T13:30:57;102191.06;;;18.07;56.86
79540;BME280;74475;52.122;5.406;2023-12-14T13:33:24;102192.13;;;18.04;56.87
79540;BME280;74475;52.122;5.406;2023-12-14T13:35:54;102197.50;;;18.06;56.86
79540;BME280;74475;52.122;5.406;2023-12-14T13:38:21;102201.09;;;18.06;56.68
79540;BME280;74475;52.122;5.406;2023-12-14T13:40:47;102201.19;;;18.05;56.71
79540;BME280;74475;52.122;5.406;2023-12-14T13:43:14;102202.06;;;18.05;56.72
79540;BME280;74475;52.122;5.406;2023-12-14T13:45:41;102213.81;;;18.06;56.83
79540;BME280;74475;52.122;5.406;2023-12-14T13:48:08;102223.91;;;18.04;56.75
79540;BME280;74475;52.122;5.406;2023-12-14T13:50:35;102227.63;;;18.03;56.85
79540;BME280;74475;52.122;5.406;2023-12-14T13:53:02;102224.91;;;18.03;56.61
79540;BME280;74475;52.122;5.406;2023-12-14T13:55:28;102228.56;;;18.02;57.02
79540;BME280;74475;52.122;5.406;2023-12-14T13:57:55;102232.25;;;18.01;56.66
79540;BME280;74475;52.122;5.406;2023-12-14T14:00:24;102235.94;;;18.00;56.90
79540;BME280;74475;52.122;5.406;2023-12-14T14:02:51;102238.66;;;18.00;56.65
79540;BME280;74475;52.122;5.406;2023-12-14T14:05:17;102235.16;;;17.98;56.96
79540;BME280;74475;52.122;5.406;2023-12-14T14:07:44;102238.84;;;17.97;56.41
79540;BME280;74475;52.122;5.406;2023-12-14T14:10:11;102243.50;;;17.95;56.58
79540;BME280;74475;52.122;5.406;2023-12-14T14:12:37;102249.03;;;17.93;56.64
79540;BME280;74475;52.122;5.406;2023-12-14T14:15:05;102250.09;;;17.90;56.50
79540;BME280;74475;52.122;5.406;2023-12-14T14:17:32;102242.81;;;17.91;56.73
79540;BME280;74475;52.122;5.406;2023-12-14T14:19:58;102246.47;;;17.90;56.61
79540;BME280;74475;52.122;5.406;2023-12-14T14:22:25;102252.88;;;17.89;56.63
79540;BME280;74475;52.122;5.406;2023-12-14T14:24:51;102258.44;;;17.87;57.03
79540;BME280;74475;52.122;5.406;2023-12-14T14:27:18;102261.16;;;17.87;56.83
79540;BME280;74475;52.122;5.406;2023-12-14T14:29:44;102270.19;;;17.88;56.91
79540;BME280;74475;52.122;5.406;2023-12-14T14:32:11;102277.47;;;17.87;56.89
79540;BME280;74475;52.122;5.406;2023-12-14T14:34:37;102281.16;;;17.86;57.38
79540;BME280;74475;52.122;5.406;2023-12-14T14:37:04;102288.44;;;17.86;57.27
79540;BME280;74475;52.122;5.406;2023-12-14T14:39:30;102294.88;;;17.85;57.12
79540;BME280;74475;52.122;5.406;2023-12-14T14:41:56;102293.09;;;17.84;57.09
79540;BME280;74475;52.122;5.406;2023-12-14T14:44:24;102296.78;;;17.83;56.90
79540;BME280;74475;52.122;5.406;2023-12-14T14:46:51;102298.63;;;17.82;57.22
79540;BME280;74475;52.122;5.406;2023-12-14T14:49:18;102303.03;;;17.85;57.32
79540;BME280;74475;52.122;5.406;2023-12-14T14:51:44;102306.59;;;17.85;57.16
79540;BME280;74475;52.122;5.406;2023-12-14T14:54:11;102309.31;;;17.85;56.98
79540;BME280;74475;52.122;5.406;2023-12-14T14:56:37;102318.47;;;17.84;56.97
79540;BME280;74475;52.122;5.406;2023-12-14T14:59:04;102318.47;;;17.84;57.20
79540;BME280;74475;52.122;5.406;2023-12-14T15:01:30;102322.13;;;17.83;57.18
79540;BME280;74475;52.122;5.406;2023-12-14T15:03:57;102324.94;;;17.82;57.26
79540;BME280;74475;52.122;5.406;2023-12-14T15:06:23;102324.94;;;17.82;57.15
79540;BME280;74475;52.122;5.406;2023-12-14T15:08:50;102329.53;;;17.81;57.41
79540;BME280;74475;52.122;5.406;2023-12-14T15:11:16;102332.31;;;17.80;57.50
79540;BME280;74475;52.122;5.406;2023-12-14T15:13:43;102344.09;;;17.80;57.48
79540;BME280;74475;52.122;5.406;2023-12-14T15:16:09;102343.28;;;17.78;57.50
79540;BME280;74475;52.122;5.406;2023-12-14T15:18:36;102346.00;;;17.78;57.67
79540;BME280;74475;52.122;5.406;2023-12-14T15:21:08;102343.28;;;17.78;57.50
79540;BME280;74475;52.122;5.406;2023-12-14T15:23:36;102358.75;;;17.78;57.57
79540;BME280;74475;52.122;5.406;2023-12-14T15:26:03;102356.88;;;17.78;57.28
79540;BME280;74475;52.122;5.406;2023-12-14T15:28:31;102358.75;;;17.78;57.70
79540;BME280;74475;52.122;5.406;2023-12-14T15:30:58;102361.47;;;17.78;57.59
79540;BME280;74475;52.122;5.406;2023-12-14T15:33:24;102366.03;;;17.77;57.92
79540;BME280;74475;52.122;5.406;2023-12-14T15:35:52;102368.75;;;17.77;58.22
79540;BME280;74475;52.122;5.406;2023-12-14T15:38:18;102374.19;;;17.77;58.22
79540;BME280;74475;52.122;5.406;2023-12-14T15:40:45;102381.47;;;17.77;58.13
79540;BME280;74475;52.122;5.406;2023-12-14T15:43:11;102378.75;;;17.77;58.47
79540;BME280;74475;52.122;5.406;2023-12-14T15:45:39;102382.41;;;17.76;58.45
79540;BME280;74475;52.122;5.406;2023-12-14T15:48:05;102381.53;;;17.75;58.38
79540;BME280;74475;52.122;5.406;2023-12-14T15:50:33;102395.13;;;17.75;58.41
79540;BME280;74475;52.122;5.406;2023-12-14T15:52:59;102377.06;;;17.74;58.67
79540;BME280;74475;52.122;5.406;2023-12-14T15:55:26;102381.63;;;17.74;58.47
79540;BME280;74475;52.122;5.406;2023-12-14T15:57:53;102386.19;;;17.73;58.34
79540;BME280;74475;52.122;5.406;2023-12-14T16:00:19;102385.31;;;17.73;58.51
79540;BME280;74475;52.122;5.406;2023-12-14T16:02:46;102391.63;;;17.73;58.45
79540;BME280;74475;52.122;5.406;2023-12-14T16:05:12;102387.25;;;17.71;58.60
79540;BME280;74475;52.122;5.406;2023-12-14T16:07:39;102392.69;;;17.71;58.65
79540;BME280;74475;52.122;5.406;2023-12-14T16:10:06;102391.81;;;17.70;58.76
79540;BME280;74475;52.122;5.406;2023-12-14T16:12:33;102403.56;;;17.71;58.62
79540;BME280;74475;52.122;5.406;2023-12-14T16:15:00;102403.72;;;17.68;59.03
79540;BME280;74475;52.122;5.406;2023-12-14T16:17:26;102410.03;;;17.68;58.54
79540;BME280;74475;52.122;5.406;2023-12-14T16:19:55;102408.28;;;17.67;58.53
79540;BME280;74475;52.122;5.406;2023-12-14T16:22:21;102408.28;;;17.67;58.53
79540;BME280;74475;52.122;5.406;2023-12-14T16:24:47;102414.69;;;17.66;58.99
79540;BME280;74475;52.122;5.406;2023-12-14T16:27:14;102420.13;;;17.66;58.65
79540;BME280;74475;52.122;5.406;2023-12-14T16:29:46;102413.16;;;17.61;58.86
79540;BME280;74475;52.122;5.406;2023-12-14T16:32:12;102423.31;;;17.57;59.05
79540;BME280;74475;52.122;5.406;2023-12-14T16:34:39;102418.03;;;17.54;58.72
79540;BME280;74475;52.122;5.406;2023-12-14T16:37:05;102422.56;;;17.54;59.57
79540;BME280;74475;52.122;5.406;2023-12-14T16:39:32;102429.88;;;17.53;59.01
79540;BME280;74475;52.122;5.406;2023-12-14T16:41:58;102437.22;;;17.51;59.42
79540;BME280;74475;52.122;5.406;2023-12-14T16:44:25;102436.44;;;17.49;59.12
79540;BME280;74475;52.122;5.406;2023-12-14T16:46:51;102437.31;;;17.50;59.14
79540;BME280;74475;52.122;5.406;2023-12-14T16:49:18;102441.06;;;17.47;59.52
79540;BME280;74475;52.122;5.406;2023-12-14T16:51:44;102444.75;;;17.46;59.76
79540;BME280;74475;52.122;5.406;2023-12-14T16:54:11;102446.50;;;17.47;60.65
79540;BME280;74475;52.122;5.406;2023-12-14T16:56:38;102446.50;;;17.47;60.85
79540;BME280;74475;52.122;5.406;2023-12-14T16:59:09;102449.22;;;17.47;61.16
79540;BME280;74475;52.122;5.406;2023-12-14T17:01:40;102459.13;;;17.48;61.77
79540;BME280;74475;52.122;5.406;2023-12-14T17:04:08;102463.63;;;17.49;62.30
79540;BME280;74475;52.122;5.406;2023-12-14T17:06:34;102470.91;;;17.49;62.93
79540;BME280;74475;52.122;5.406;2023-12-14T17:09:01;102470.03;;;17.48;62.80
79540;BME280;74475;52.122;5.406;2023-12-14T17:11:27;102470.03;;;17.48;63.17
79540;BME280;74475;52.122;5.406;2023-12-14T17:13:54;102470.97;;;17.47;62.97
79540;BME280;74475;52.122;5.406;2023-12-14T17:16:20;102466.41;;;17.48;62.98
79540;BME280;74475;52.122;5.406;2023-12-14T17:18:48;102467.38;;;17.47;63.23
79540;BME280;74475;52.122;5.406;2023-12-14T17:21:22;102471.06;;;17.46;62.81
79540;BME280;74475;52.122;5.406;2023-12-14T17:23:50;102473.78;;;17.46;63.13
79540;BME280;74475;52.122;5.406;2023-12-14T17:26:17;102474.75;;;17.45;63.10
79540;BME280;74475;52.122;5.406;2023-12-14T17:28:47;102469.38;;;17.43;63.32
79540;BME280;74475;52.122;5.406;2023-12-14T17:31:15;102465.78;;;17.42;63.03
79540;BME280;74475;52.122;5.406;2023-12-14T17:33:43;102466.75;;;17.41;62.92
79540;BME280;74475;52.122;5.406;2023-12-14T17:36:10;102464.97;;;17.40;62.73
79540;BME280;74475;52.122;5.406;2023-12-14T17:38:36;102465.88;;;17.41;62.89
79540;BME280;74475;52.122;5.406;2023-12-14T17:41:07;102471.31;;;17.41;62.49
79540;BME280;74475;52.122;5.406;2023-12-14T17:43:36;102474.09;;;17.39;62.68
79540;BME280;74475;52.122;5.406;2023-12-14T17:46:03;102479.53;;;17.39;62.52
79540;BME280;74475;52.122;5.406;2023-12-14T17:48:29;102473.22;;;17.39;62.63
79540;BME280;74475;52.122;5.406;2023-12-14T17:50:56;102481.47;;;17.37;62.76
79540;BME280;74475;52.122;5.406;2023-12-14T17:53:23;102480.56;;;17.37;62.56
79540;BME280;74475;52.122;5.406;2023-12-14T17:55:50;102483.38;;;17.35;62.62
79540;BME280;74475;52.122;5.406;2023-12-14T17:58:17;102490.66;;;17.35;62.68